Time;durP1;ratioP1;P1;durP2;ratioP2;P2;SDS_P1;SDS_P2;PMS_P1;PMS_P2;Temp;Humidity;BMP_temperature;BMP_pressure;BME280_temperature;BME280_humidity;BME280_pressure;Samples;Min_cycle;Max_cycle;Signal;HPM_P1;HPM_P2
2022/01/22 00:00:21;;;;;;;11.00;2.70;;;;;;;;;;4994472;28;20025;-36
2022/01/22 00:02:48;;;;;;;5.63;2.65;;;;;;;;;;4994397;28;20096;-36
2022/01/22 00:05:15;;;;;;;4.00;2.30;;;;;;;;;;4994147;28;20047;-38
2022/01/22 00:07:41;;;;;;;6.13;2.78;;;;;;;;;;4993465;28;20443;-37
2022/01/22 00:10:14;;;;;;;5.97;2.08;;;;;;;;;;4994630;28;20109;-37
2022/01/22 00:15:19;;;;;;;6.65;2.58;;;;;;;;;;4994555;28;20019;-41
2022/01/22 00:17:46;;;;;;;6.25;3.05;;;;;;;;;;4994628;28;20033;-37
2022/01/22 00:20:13;;;;;;;6.93;2.85;;;;;;;;;;4994344;28;20495;-37
2022/01/22 00:22:39;;;;;;;8.52;2.72;;;;;;;;;;4993959;28;20121;-37
2022/01/22 00:25:08;;;;;;;7.45;2.88;;;;;;;;;;4993863;28;20141;-37
2022/01/22 00:27:36;;;;;;;7.78;2.60;;;;;;;;;;4994214;28;20050;-36
2022/01/22 00:30:04;;;;;;;8.77;3.15;;;;;;;;;;4993858;28;20110;-37
2022/01/22 00:32:29;;;;;;;6.10;2.63;;;;;;;;;;4993888;28;20030;-37
2022/01/22 00:34:54;;;;;;;6.40;1.98;;;;;;;;;;4993853;28;20037;-37
2022/01/22 00:37:20;;;;;;;5.50;2.40;;;;;;;;;;4992761;28;20054;-37
2022/01/22 00:39:45;;;;;;;3.75;2.10;;;;;;;;;;4994307;28;20524;-37
2022/01/22 00:42:13;;;;;;;4.10;2.28;;;;;;;;;;4993955;28;20026;-39
2022/01/22 00:44:39;;;;;;;6.25;2.30;;;;;;;;;;4994006;28;20122;-37
2022/01/22 00:47:05;;;;;;;4.43;2.30;;;;;;;;;;4993841;28;20493;-36
2022/01/22 00:49:31;;;;;;;3.33;1.90;;;;;;;;;;4994202;28;20169;-35
2022/01/22 00:51:57;;;;;;;3.22;1.90;;;;;;;;;;4993977;28;20398;-37
2022/01/22 00:54:26;;;;;;;5.63;2.03;;;;;;;;;;4994024;28;20022;-37
2022/01/22 00:56:52;;;;;;;4.45;2.60;;;;;;;;;;4994056;28;20064;-37
2022/01/22 00:59:17;;;;;;;3.05;2.05;;;;;;;;;;4993553;28;20493;-37
2022/01/22 01:01:42;;;;;;;4.95;1.90;;;;;;;;;;4993936;28;20048;-36
2022/01/22 01:04:10;;;;;;;5.00;1.98;;;;;;;;;;4993126;28;20185;-36
2022/01/22 01:06:36;;;;;;;7.38;1.90;;;;;;;;;;4993863;28;20034;-37
2022/01/22 01:09:05;;;;;;;4.00;1.90;;;;;;;;;;4992583;28;20049;-37
2022/01/22 01:11:32;;;;;;;3.63;2.00;;;;;;;;;;4993764;28;20027;-40
2022/01/22 01:14:01;;;;;;;4.97;1.83;;;;;;;;;;4993441;28;20026;-37
2022/01/22 01:32:57;;;;;;;5.82;2.05;;;;;;;;;;4993541;28;20085;-37
2022/01/22 01:35:25;;;;;;;5.25;1.70;;;;;;;;;;4993197;28;20026;-38
2022/01/22 01:37:52;;;;;;;2.60;1.90;;;;;;;;;;4993008;28;20030;-36
2022/01/22 01:40:21;;;;;;;1.70;1.60;;;;;;;;;;4991957;28;20030;-36
2022/01/22 01:43:03;;;;;;;2.35;1.63;;;;;;;;;;4993331;28;20030;-36
2022/01/22 01:45:29;;;;;;;4.78;2.08;;;;;;;;;;4993172;28;20467;-36
2022/01/22 01:48:02;;;;;;;2.45;1.50;;;;;;;;;;4993329;28;20030;-36
2022/01/22 01:50:30;;;;;;;3.30;1.73;;;;;;;;;;4993345;28;20026;-36
2022/01/22 01:53:14;;;;;;;2.83;1.48;;;;;;;;;;4992948;28;20062;-44
2022/01/22 01:58:28;;;;;;;3.22;1.73;;;;;;;;;;4993067;28;20446;-36
2022/01/22 02:00:54;;;;;;;1.77;1.40;;;;;;;;;;4993183;28;20022;-36
2022/01/22 02:03:20;;;;;;;2.83;1.45;;;;;;;;;;4993140;28;20042;-37
2022/01/22 02:05:45;;;;;;;2.70;1.60;;;;;;;;;;4992741;28;20232;-37
2022/01/22 02:08:15;;;;;;;5.05;1.77;;;;;;;;;;4992814;28;20033;-36
2022/01/22 02:10:52;;;;;;;2.17;1.97;;;;;;;;;;4992888;28;20101;-36
2022/01/22 02:13:43;;;;;;;6.45;1.92;;;;;;;;;;4992770;28;20030;-36
2022/01/22 02:24:43;;;;;;;1.63;1.40;;;;;;;;;;4992591;28;20041;-37
2022/01/22 02:27:09;;;;;;;2.63;1.92;;;;;;;;;;4992676;28;20022;-38
2022/01/22 02:29:34;;;;;;;2.40;1.75;;;;;;;;;;4992628;28;20022;-36
2022/01/22 02:32:48;;;;;;;2.80;1.50;;;;;;;;;;4995823;28;20405;-37
2022/01/22 02:35:10;;;;;;;6.32;1.98;;;;;;;;;;4996235;28;20042;-37
2022/01/22 02:37:40;;;;;;;3.95;2.17;;;;;;;;;;4996754;28;20038;-38
2022/01/22 02:40:14;;;;;;;4.28;2.00;;;;;;;;;;4996816;28;20027;-36
2022/01/22 02:42:43;;;;;;;6.13;1.60;;;;;;;;;;4996524;28;20121;-36
2022/01/22 02:45:11;;;;;;;2.60;2.00;;;;;;;;;;4996122;28;20114;-36
2022/01/22 02:47:38;;;;;;;3.20;1.70;;;;;;;;;;4996489;28;20027;-37
2022/01/22 02:50:06;;;;;;;4.57;1.80;;;;;;;;;;4996137;28;20034;-36
2022/01/22 02:52:32;;;;;;;2.17;1.48;;;;;;;;;;4996156;28;20034;-37
2022/01/22 02:54:58;;;;;;;2.63;1.65;;;;;;;;;;4995945;28;20034;-37
2022/01/22 02:57:24;;;;;;;4.85;1.88;;;;;;;;;;4995957;28;20026;-36
2022/01/22 02:59:49;;;;;;;3.40;1.80;;;;;;;;;;4996249;28;20041;-37
2022/01/22 03:02:15;;;;;;;4.13;1.90;;;;;;;;;;4996136;28;20348;-37
2022/01/22 03:04:41;;;;;;;7.95;1.73;;;;;;;;;;4995835;28;20054;-36
2022/01/22 03:07:07;;;;;;;7.95;2.03;;;;;;;;;;4995970;28;20382;-37
2022/01/22 03:09:40;;;;;;;2.83;1.52;;;;;;;;;;4995849;28;20022;-37
2022/01/22 03:20:22;;;;;;;4.07;1.77;;;;;;;;;;4995683;28;20018;-36
2022/01/22 03:27:58;;;;;;;3.08;1.30;;;;;;;;;;4995777;28;20059;-36
2022/01/22 03:30:24;;;;;;;3.85;1.63;;;;;;;;;;4995420;28;20034;-36
2022/01/22 03:32:53;;;;;;;1.50;1.40;;;;;;;;;;4995651;28;20042;-36
2022/01/22 03:37:51;;;;;;;3.95;1.58;;;;;;;;;;4995312;28;20032;-36
2022/01/22 03:40:21;;;;;;;2.35;1.70;;;;;;;;;;4995241;28;20390;-36
2022/01/22 03:42:47;;;;;;;3.47;1.90;;;;;;;;;;4993581;28;20026;-50
2022/01/22 03:45:13;;;;;;;4.07;2.05;;;;;;;;;;4995042;28;20678;-37
2022/01/22 03:47:40;;;;;;;3.03;2.15;;;;;;;;;;4995278;28;20355;-36
2022/01/22 03:50:08;;;;;;;3.75;2.03;;;;;;;;;;4994925;28;20026;-39
2022/01/22 03:52:33;;;;;;;6.38;2.30;;;;;;;;;;4994863;28;20026;-36
2022/01/22 03:54:59;;;;;;;3.65;1.60;;;;;;;;;;4994775;28;20088;-37
2022/01/22 03:57:25;;;;;;;4.32;2.17;;;;;;;;;;4995169;28;20018;-36
2022/01/22 03:59:53;;;;;;;7.20;2.70;;;;;;;;;;4994811;28;20026;-36
2022/01/22 04:04:52;;;;;;;9.65;3.05;;;;;;;;;;4994742;28;20435;-37
2022/01/22 04:10:04;;;;;;;7.72;2.53;;;;;;;;;;4994937;28;20030;-37
2022/01/22 04:15:07;;;;;;;7.28;2.17;;;;;;;;;;4994818;28;20034;-36
2022/01/22 04:25:31;;;;;;;3.22;1.83;;;;;;;;;;4994625;28;20387;-37
2022/01/22 04:27:57;;;;;;;4.15;1.92;;;;;;;;;;4994638;28;20023;-36
2022/01/22 04:30:24;;;;;;;3.53;1.95;;;;;;;;;;4994272;28;20029;-40
2022/01/22 04:32:50;;;;;;;2.92;2.20;;;;;;;;;;4994186;28;20536;-36
2022/01/22 04:35:17;;;;;;;6.15;1.98;;;;;;;;;;4994094;28;20026;-36
2022/01/22 04:37:43;;;;;;;2.03;1.80;;;;;;;;;;4994059;28;20027;-39
2022/01/22 04:40:09;;;;;;;5.75;1.95;;;;;;;;;;4994113;28;20023;-37
2022/01/22 04:42:37;;;;;;;2.50;1.92;;;;;;;;;;4993977;28;20033;-36
2022/01/22 04:45:19;;;;;;;4.32;1.65;;;;;;;;;;4994058;28;20026;-36
2022/01/22 04:55:40;;;;;;;6.82;2.13;;;;;;;;;;4994153;28;20482;-36
2022/01/22 04:58:07;;;;;;;4.40;2.10;;;;;;;;;;4993694;28;20023;-36
2022/01/22 05:00:36;;;;;;;2.70;1.80;;;;;;;;;;4994074;28;20109;-37
2022/01/22 05:03:04;;;;;;;3.53;2.10;;;;;;;;;;4993907;28;20110;-36
2022/01/22 05:05:30;;;;;;;6.13;2.60;;;;;;;;;;4993504;28;20050;-36
2022/01/22 05:07:56;;;;;;;5.15;2.58;;;;;;;;;;4993611;28;20137;-37
2022/01/22 05:10:22;;;;;;;6.32;3.20;;;;;;;;;;4993399;28;20482;-36
2022/01/22 05:12:48;;;;;;;9.13;6.47;;;;;;;;;;4993842;28;20023;-36
2022/01/22 05:15:16;;;;;;;4.15;2.92;;;;;;;;;;4993709;28;20390;-36
2022/01/22 05:17:43;;;;;;;11.23;3.10;;;;;;;;;;4992212;28;20434;-37
2022/01/22 05:20:16;;;;;;;5.45;3.20;;;;;;;;;;4993181;28;20035;-36
2022/01/22 05:25:32;;;;;;;4.88;2.15;;;;;;;;;;4993346;28;20120;-36
2022/01/22 05:28:13;;;;;;;3.65;2.42;;;;;;;;;;4993564;28;20081;-36
2022/01/22 05:38:33;;;;;;;2.88;2.17;;;;;;;;;;4993413;28;20045;-37
2022/01/22 05:40:58;;;;;;;5.13;2.80;;;;;;;;;;4993066;28;20478;-37
2022/01/22 05:43:24;;;;;;;4.65;2.38;;;;;;;;;;4993261;28;20030;-37
2022/01/22 05:45:49;;;;;;;3.58;2.22;;;;;;;;;;4993041;28;20038;-37
2022/01/22 05:48:15;;;;;;;2.78;1.63;;;;;;;;;;4993021;28;20117;-37
2022/01/22 05:53:19;;;;;;;4.07;2.30;;;;;;;;;;4993208;28;20165;-37
2022/01/22 06:01:11;;;;;;;2.78;1.85;;;;;;;;;;4992957;28;20041;-38
2022/01/22 06:03:36;;;;;;;4.72;2.35;;;;;;;;;;4993147;28;20046;-36
2022/01/22 06:06:02;;;;;;;4.03;2.20;;;;;;;;;;4995783;28;20434;-37
2022/01/22 06:08:31;;;;;;;3.97;2.20;;;;;;;;;;4997177;28;20030;-36
2022/01/22 06:10:59;;;;;;;3.65;2.40;;;;;;;;;;4996807;28;20667;-37
2022/01/22 06:13:33;;;;;;;4.80;2.58;;;;;;;;;;4996825;28;20030;-37
2022/01/22 06:15:59;;;;;;;5.50;2.85;;;;;;;;;;4996689;28;20026;-38
2022/01/22 06:18:24;;;;;;;3.63;2.33;;;;;;;;;;4996759;28;20026;-37
2022/01/22 06:20:50;;;;;;;4.35;2.70;;;;;;;;;;4996967;28;20415;-36
2022/01/22 06:23:15;;;;;;;3.97;2.10;;;;;;;;;;4996550;28;20121;-36
2022/01/22 06:25:41;;;;;;;5.30;2.58;;;;;;;;;;4996567;28;20034;-44
2022/01/22 06:28:06;;;;;;;3.03;2.00;;;;;;;;;;4996722;28;20057;-36
2022/01/22 06:30:32;;;;;;;10.80;2.67;;;;;;;;;;4996753;28;20023;-37
2022/01/22 06:32:57;;;;;;;3.75;2.50;;;;;;;;;;4996396;28;20494;-37
2022/01/22 06:35:23;;;;;;;4.63;2.50;;;;;;;;;;4996628;28;20030;-36
2022/01/22 06:37:49;;;;;;;5.53;3.30;;;;;;;;;;4996565;28;20022;-36
2022/01/22 06:42:43;;;;;;;4.93;2.67;;;;;;;;;;4996504;28;20546;-37
2022/01/22 06:45:08;;;;;;;4.22;2.42;;;;;;;;;;4996321;28;20142;-37
2022/01/22 06:47:34;;;;;;;5.30;3.20;;;;;;;;;;4996349;28;20451;-38
2022/01/22 06:50:00;;;;;;;6.50;3.78;;;;;;;;;;4996208;28;20030;-37
2022/01/22 06:52:26;;;;;;;4.50;2.85;;;;;;;;;;4995996;28;20018;-37
2022/01/22 06:54:51;;;;;;;6.68;3.88;;;;;;;;;;4994775;28;20036;-37
2022/01/22 06:57:17;;;;;;;5.35;3.20;;;;;;;;;;4995964;28;20023;-37
2022/01/22 06:59:42;;;;;;;5.07;3.35;;;;;;;;;;4995846;28;20081;-37
2022/01/22 07:02:08;;;;;;;4.35;3.00;;;;;;;;;;4996138;28;20084;-37
2022/01/22 07:04:37;;;;;;;4.15;3.03;;;;;;;;;;4995762;28;20042;-37
2022/01/22 07:07:09;;;;;;;2.47;2.28;;;;;;;;;;4996082;28;20077;-37
2022/01/22 07:09:36;;;;;;;6.75;3.53;;;;;;;;;;4994519;28;20093;-37
2022/01/22 07:12:02;;;;;;;6.03;3.92;;;;;;;;;;4995625;28;20044;-37
2022/01/22 07:14:29;;;;;;;9.30;4.47;;;;;;;;;;4995936;28;20077;-39
2022/01/22 07:16:54;;;;;;;5.47;3.92;;;;;;;;;;4995264;28;20022;-37
2022/01/22 07:19:20;;;;;;;8.50;4.88;;;;;;;;;;4995834;28;20042;-37
2022/01/22 07:21:55;;;;;;;7.90;5.70;;;;;;;;;;4995554;28;20085;-38
2022/01/22 07:24:23;;;;;;;10.77;6.22;;;;;;;;;;4995382;28;20038;-36
2022/01/22 07:26:55;;;;;;;12.25;5.70;;;;;;;;;;4995417;28;20026;-37
2022/01/22 07:29:21;;;;;;;9.88;6.00;;;;;;;;;;4995720;28;20551;-36
2022/01/22 07:31:47;;;;;;;13.50;6.63;;;;;;;;;;4995337;28;20101;-38
2022/01/22 07:34:13;;;;;;;10.05;6.05;;;;;;;;;;4995499;28;20054;-37
2022/01/22 07:36:38;;;;;;;5.10;3.65;;;;;;;;;;4995551;28;20033;-37
2022/01/22 07:39:04;;;;;;;6.03;3.38;;;;;;;;;;4995318;28;20033;-38
2022/01/22 07:41:30;;;;;;;4.22;2.75;;;;;;;;;;4995434;28;20034;-37
2022/01/22 07:43:55;;;;;;;12.75;7.20;;;;;;;;;;4995071;28;20030;-39
2022/01/22 07:46:21;;;;;;;4.95;2.78;;;;;;;;;;4995405;28;20035;-37
2022/01/22 07:48:46;;;;;;;3.65;2.05;;;;;;;;;;4995085;28;20093;-37
2022/01/22 07:51:12;;;;;;;5.30;2.38;;;;;;;;;;4995037;28;20029;-48
2022/01/22 07:53:38;;;;;;;4.60;2.35;;;;;;;;;;4995301;28;20426;-38
2022/01/22 07:56:04;;;;;;;3.42;1.95;;;;;;;;;;4994856;28;20026;-37
2022/01/22 07:58:30;;;;;;;3.40;2.30;;;;;;;;;;4994981;28;20538;-37
2022/01/22 08:00:55;;;;;;;6.85;3.83;;;;;;;;;;4995124;28;20506;-40
2022/01/22 08:03:23;;;;;;;8.10;3.33;;;;;;;;;;4994710;28;20022;-38
2022/01/22 08:05:49;;;;;;;5.40;3.70;;;;;;;;;;4994612;28;20118;-38
2022/01/22 08:08:14;;;;;;;5.57;4.47;;;;;;;;;;4994654;28;20109;-37
2022/01/22 08:10:40;;;;;;;6.28;2.75;;;;;;;;;;4994701;28;20061;-42
2022/01/22 08:13:05;;;;;;;6.03;2.60;;;;;;;;;;4994967;28;20042;-37
2022/01/22 08:15:30;;;;;;;3.97;2.72;;;;;;;;;;4994593;28;20371;-37
2022/01/22 08:17:56;;;;;;;5.10;3.00;;;;;;;;;;4994713;28;20038;-48
2022/01/22 08:20:24;;;;;;;4.40;3.00;;;;;;;;;;4994302;28;20018;-37
2022/01/22 08:22:49;;;;;;;9.65;5.03;;;;;;;;;;4994370;28;20052;-38
2022/01/22 08:25:15;;;;;;;7.28;4.18;;;;;;;;;;4994534;28;20530;-52
2022/01/22 08:30:24;;;;;;;9.82;6.05;;;;;;;;;;4994376;28;20129;-48
2022/01/22 08:33:08;;;;;;;7.82;3.40;;;;;;;;;;4994119;28;20065;-43
2022/01/22 08:35:52;;;;;;;6.75;3.60;;;;;;;;;;4994312;28;20088;-52
2022/01/22 08:38:18;;;;;;;6.70;4.88;;;;;;;;;;4994009;28;20386;-45
2022/01/22 08:40:44;;;;;;;7.00;4.75;;;;;;;;;;4994065;28;20494;-39
2022/01/22 08:43:10;;;;;;;6.72;4.30;;;;;;;;;;4994023;28;20034;-42
2022/01/22 08:45:40;;;;;;;5.50;3.70;;;;;;;;;;4993728;28;20120;-35
2022/01/22 08:48:06;;;;;;;7.57;4.47;;;;;;;;;;4993760;28;20027;-38
2022/01/22 08:50:39;;;;;;;6.32;4.43;;;;;;;;;;5069663;28;20387;-42
2022/01/22 08:53:05;;;;;;;8.63;4.95;;;;;;;;;;5069715;28;20439;-37
2022/01/22 08:55:30;;;;;;;7.40;3.53;;;;;;;;;;5069571;28;20541;-37
2022/01/22 08:57:56;;;;;;;8.50;5.03;;;;;;;;;;5069805;28;20388;-43
2022/01/22 09:00:22;;;;;;;7.43;5.30;;;;;;;;;;5069767;28;20384;-37
2022/01/22 09:02:48;;;;;;;8.15;4.07;;;;;;;;;;5069749;28;20021;-48
2022/01/22 09:05:16;;;;;;;6.78;4.72;;;;;;;;;;5069280;28;20481;-40
2022/01/22 09:07:41;;;;;;;4.82;3.85;;;;;;;;;;5068045;28;20032;-38
2022/01/22 09:10:07;;;;;;;7.15;4.68;;;;;;;;;;5069149;28;20029;-41
2022/01/22 09:12:33;;;;;;;6.50;5.05;;;;;;;;;;5069302;28;20130;-36
2022/01/22 09:14:58;;;;;;;9.13;4.45;;;;;;;;;;5069086;28;20029;-36
2022/01/22 09:17:23;;;;;;;6.10;4.13;;;;;;;;;;5069211;28;20433;-43
2022/01/22 09:19:56;;;;;;;6.97;4.90;;;;;;;;;;5069401;28;20037;-47
2022/01/22 09:22:22;;;;;;;7.55;4.82;;;;;;;;;;5069328;28;20035;-37
2022/01/22 09:24:48;;;;;;;7.70;4.95;;;;;;;;;;5068884;28;20029;-37
2022/01/22 09:27:15;;;;;;;5.80;4.15;;;;;;;;;;5068977;28;20119;-36
2022/01/22 09:29:42;;;;;;;8.43;5.22;;;;;;;;;;5068979;28;20028;-37
2022/01/22 09:32:07;;;;;;;7.53;5.78;;;;;;;;;;5069014;28;20017;-37
2022/01/22 09:34:33;;;;;;;4.13;2.88;;;;;;;;;;5067267;28;20054;-35
2022/01/22 09:36:58;;;;;;;4.70;3.15;;;;;;;;;;5066940;28;20036;-36
2022/01/22 09:39:24;;;;;;;3.53;2.33;;;;;;;;;;5067432;28;20048;-34
2022/01/22 09:41:49;;;;;;;7.35;4.93;;;;;;;;;;5067064;28;20032;-37
2022/01/22 09:44:15;;;;;;;8.13;4.72;;;;;;;;;;5068037;28;20029;-39
2022/01/22 09:46:43;;;;;;;6.93;4.75;;;;;;;;;;5068416;28;20040;-37
2022/01/22 09:49:10;;;;;;;7.40;4.25;;;;;;;;;;5067920;28;20063;-45
2022/01/22 09:51:36;;;;;;;10.88;6.15;;;;;;;;;;5068540;28;20044;-37
2022/01/22 09:54:02;;;;;;;11.80;7.28;;;;;;;;;;5068138;28;20032;-36
2022/01/22 09:56:28;;;;;;;8.82;5.07;;;;;;;;;;5068264;28;20025;-36
2022/01/22 09:58:53;;;;;;;9.00;5.75;;;;;;;;;;5068413;28;20140;-36
2022/01/22 10:01:31;;;;;;;8.52;5.50;;;;;;;;;;5058620;28;20063;-41
2022/01/22 10:03:59;;;;;;;4.93;3.65;;;;;;;;;;5055031;28;20033;-38
2022/01/22 10:06:27;;;;;;;7.45;4.82;;;;;;;;;;5055264;28;20036;-37
2022/01/22 10:09:05;;;;;;;10.15;6.38;;;;;;;;;;5055211;28;20040;-37
2022/01/22 10:11:31;;;;;;;10.48;5.80;;;;;;;;;;5055220;28;20025;-38
2022/01/22 10:13:59;;;;;;;7.60;4.60;;;;;;;;;;5055136;28;20036;-50
2022/01/22 10:16:35;;;;;;;10.38;6.60;;;;;;;;;;5054888;28;20074;-37
2022/01/22 10:19:21;;;;;;;7.13;4.20;;;;;;;;;;5054953;28;20021;-49
2022/01/22 10:21:57;;;;;;;8.60;5.60;;;;;;;;;;5052893;28;20531;-36
2022/01/22 10:27:11;;;;;;;5.68;3.90;;;;;;;;;;5054809;28;20040;-38
2022/01/22 10:29:47;;;;;;;6.38;5.22;;;;;;;;;;5054234;28;20082;-37
2022/01/22 10:32:18;;;;;;;5.45;4.05;;;;;;;;;;5054836;28;20029;-38
2022/01/22 10:34:43;;;;;;;6.38;4.75;;;;;;;;;;5054711;28;20021;-43
2022/01/22 10:37:09;;;;;;;5.60;4.43;;;;;;;;;;5052812;28;20036;-43
2022/01/22 10:39:34;;;;;;;6.03;3.92;;;;;;;;;;5053610;28;20029;-41
2022/01/22 10:42:00;;;;;;;4.88;3.47;;;;;;;;;;5054710;28;20358;-41
2022/01/22 10:44:47;;;;;;;4.10;3.70;;;;;;;;;;5054285;28;20017;-54
2022/01/22 10:47:22;;;;;;;3.83;3.40;;;;;;;;;;5054584;28;20033;-53
2022/01/22 10:49:48;;;;;;;4.05;3.65;;;;;;;;;;5054022;28;20080;-48
2022/01/22 10:52:13;;;;;;;4.55;3.47;;;;;;;;;;5054287;28;20467;-53
2022/01/22 10:54:39;;;;;;;5.60;4.07;;;;;;;;;;5054428;28;20033;-41
2022/01/22 10:57:31;;;;;;;7.03;4.40;;;;;;;;;;5048455;28;20027;-43
2022/01/22 10:59:58;;;;;;;4.68;3.92;;;;;;;;;;5044365;28;20055;-41
2022/01/22 11:02:33;;;;;;;5.40;4.20;;;;;;;;;;5054267;28;20021;-47
2022/01/22 11:04:59;;;;;;;4.68;3.65;;;;;;;;;;5054162;28;20063;-57
2022/01/22 11:07:25;;;;;;;5.20;4.30;;;;;;;;;;5053033;28;20060;-44
2022/01/22 11:09:50;;;;;;;4.60;3.92;;;;;;;;;;5053608;28;20025;-44
2022/01/22 11:12:16;;;;;;;5.28;4.28;;;;;;;;;;5052287;28;20033;-56
2022/01/22 11:14:43;;;;;;;5.53;4.28;;;;;;;;;;5053551;28;20039;-58
2022/01/22 11:17:10;;;;;;;5.40;4.85;;;;;;;;;;5053570;28;20029;-54
2022/01/22 11:19:39;;;;;;;10.02;4.97;;;;;;;;;;5053761;28;20032;-43
2022/01/22 11:22:10;;;;;;;5.70;4.32;;;;;;;;;;5053254;28;20112;-42
2022/01/22 11:24:41;;;;;;;6.03;4.80;;;;;;;;;;5053951;28;20079;-57
2022/01/22 11:27:09;;;;;;;6.65;4.60;;;;;;;;;;5053368;28;20035;-60
2022/01/22 11:29:47;;;;;;;9.07;5.55;;;;;;;;;;5053344;28;20079;-56
2022/01/22 11:32:15;;;;;;;6.18;5.20;;;;;;;;;;5053412;28;20029;-57
2022/01/22 11:34:43;;;;;;;7.10;5.25;;;;;;;;;;5053586;28;20037;-57
2022/01/22 11:37:15;;;;;;;6.30;5.50;;;;;;;;;;5052951;28;20020;-59
2022/01/22 11:39:41;;;;;;;10.88;6.03;;;;;;;;;;5053298;28;20512;-58
2022/01/22 11:42:08;;;;;;;5.78;5.03;;;;;;;;;;5052704;28;20059;-55
2022/01/22 11:44:50;;;;;;;5.65;4.90;;;;;;;;;;5052980;28;20021;-54
2022/01/22 11:47:22;;;;;;;6.80;5.35;;;;;;;;;;5051941;28;20075;-44
2022/01/22 11:50:21;;;;;;;5.80;4.85;;;;;;;;;;5052748;28;20051;-46
2022/01/22 11:52:47;;;;;;;6.78;5.20;;;;;;;;;;5052860;28;20033;-41
2022/01/22 11:55:15;;;;;;;5.55;4.93;;;;;;;;;;5053260;28;20053;-42
2022/01/22 11:57:42;;;;;;;5.82;5.10;;;;;;;;;;5052260;28;20025;-43
2022/01/22 12:00:24;;;;;;;5.20;4.60;;;;;;;;;;5052847;28;20473;-41
2022/01/22 12:03:08;;;;;;;7.10;5.05;;;;;;;;;;5053350;28;20033;-52
2022/01/22 12:05:54;;;;;;;6.47;5.10;;;;;;;;;;5052497;28;20547;-42
2022/01/22 12:08:21;;;;;;;5.88;5.18;;;;;;;;;;5048516;28;20040;-50
2022/01/22 12:16:40;;;;;;;6.35;5.03;;;;;;;;;;5052800;28;20118;-40
2022/01/22 12:19:37;;;;;;;6.25;4.97;;;;;;;;;;5052829;28;20028;-40
2022/01/22 12:22:29;;;;;;;5.80;4.95;;;;;;;;;;5052414;28;20032;-57
2022/01/22 12:24:54;;;;;;;8.05;5.10;;;;;;;;;;5052588;28;20029;-51
2022/01/22 12:27:45;;;;;;;7.00;5.43;;;;;;;;;;5051681;28;20538;-40
2022/01/22 12:30:12;;;;;;;6.70;5.13;;;;;;;;;;5052342;28;20032;-53
2022/01/22 12:32:57;;;;;;;7.43;4.93;;;;;;;;;;5052280;28;20036;-56
2022/01/22 12:35:40;;;;;;;5.72;4.97;;;;;;;;;;5052098;28;20021;-50
2022/01/22 12:38:34;;;;;;;6.82;4.93;;;;;;;;;;5052241;28;20056;-47
2022/01/22 12:44:39;;;;;;;6.47;4.93;;;;;;;;;;5051247;28;20033;-48
2022/01/22 12:47:11;;;;;;;6.00;4.55;;;;;;;;;;5052423;28;20059;-47
2022/01/22 12:49:37;;;;;;;6.97;5.00;;;;;;;;;;5051803;28;20049;-40
2022/01/22 12:52:07;;;;;;;6.55;4.80;;;;;;;;;;5052449;28;20025;-42
2022/01/22 12:54:46;;;;;;;5.50;4.50;;;;;;;;;;5052055;28;20082;-50
2022/01/22 12:57:15;;;;;;;6.13;4.40;;;;;;;;;;5052507;28;20017;-41
2022/01/22 12:59:49;;;;;;;5.07;4.03;;;;;;;;;;5052330;28;20028;-47
2022/01/22 13:02:14;;;;;;;5.30;3.72;;;;;;;;;;5052189;28;20036;-61
2022/01/22 13:04:40;;;;;;;5.35;3.53;;;;;;;;;;5052101;28;20025;-55
2022/01/22 13:07:14;;;;;;;5.57;3.53;;;;;;;;;;5052074;28;20074;-58
2022/01/22 13:09:47;;;;;;;3.28;2.97;;;;;;;;;;5052344;28;20028;-59
2022/01/22 13:12:13;;;;;;;5.55;3.30;;;;;;;;;;5051956;28;20112;-58
2022/01/22 13:14:40;;;;;;;5.47;3.45;;;;;;;;;;5052174;28;20079;-41
2022/01/22 13:17:11;;;;;;;4.93;3.80;;;;;;;;;;5051956;28;20028;-57
2022/01/22 13:19:39;;;;;;;5.70;4.00;;;;;;;;;;5052285;28;20032;-59
2022/01/22 13:22:05;;;;;;;5.13;3.70;;;;;;;;;;5051850;28;20051;-41
2022/01/22 13:24:31;;;;;;;3.83;2.78;;;;;;;;;;5051742;28;20029;-40
2022/01/22 13:27:06;;;;;;;5.07;3.28;;;;;;;;;;5052082;28;20035;-42
2022/01/22 13:29:41;;;;;;;5.25;3.15;;;;;;;;;;5050906;28;20468;-41
2022/01/22 13:32:20;;;;;;;4.32;3.63;;;;;;;;;;5051721;28;20086;-45
2022/01/22 13:35:24;;;;;;;6.05;4.20;;;;;;;;;;5051132;28;20032;-61
2022/01/22 13:49:04;;;;;;;6.10;3.55;;;;;;;;;;5054269;28;20045;-40
2022/01/22 13:51:32;;;;;;;4.65;3.35;;;;;;;;;;5055706;28;20068;-41
2022/01/22 13:53:58;;;;;;;4.05;2.85;;;;;;;;;;5055301;28;20445;-41
2022/01/22 13:56:47;;;;;;;5.00;3.08;;;;;;;;;;5055077;28;20413;-61
2022/01/22 13:59:18;;;;;;;6.00;3.42;;;;;;;;;;5055304;28;20500;-61
2022/01/22 14:02:07;;;;;;;5.43;3.75;;;;;;;;;;5055540;28;20027;-43
2022/01/22 14:04:42;;;;;;;5.10;2.75;;;;;;;;;;5055186;28;20021;-61
2022/01/22 14:07:14;;;;;;;3.22;2.53;;;;;;;;;;5055289;28;20031;-40
2022/01/22 14:09:51;;;;;;;3.75;2.60;;;;;;;;;;5055265;28;20369;-58
2022/01/22 14:12:16;;;;;;;2.42;2.10;;;;;;;;;;5054997;28;20021;-61
2022/01/22 14:14:57;;;;;;;3.53;2.30;;;;;;;;;;5054940;28;20035;-40
2022/01/22 14:17:29;;;;;;;2.97;1.83;;;;;;;;;;5054972;28;20505;-41
2022/01/22 14:20:00;;;;;;;4.18;2.47;;;;;;;;;;5054793;28;20032;-61
2022/01/22 14:22:25;;;;;;;;;;;;;;;;;;5055278;28;20495;-57
2022/01/22 14:25:08;;;;;;;3.60;2.10;;;;;;;;;;5055061;28;19912;-40
2022/01/22 14:27:33;;;;;;;2.65;2.00;;;;;;;;;;5055027;28;20393;-58
2022/01/22 14:29:59;;;;;;;2.88;2.33;;;;;;;;;;5054608;28;20033;-58
2022/01/22 14:32:24;;;;;;;3.15;2.60;;;;;;;;;;5054848;28;20025;-48
2022/01/22 14:34:49;;;;;;;3.42;2.53;;;;;;;;;;5054584;28;20182;-59
2022/01/22 14:37:31;;;;;;;2.88;2.25;;;;;;;;;;5054894;28;20036;-40
2022/01/22 14:45:25;;;;;;;3.67;2.10;;;;;;;;;;5054829;28;20056;-61
2022/01/22 14:47:52;;;;;;;5.18;2.00;;;;;;;;;;5052931;28;20477;-61
2022/01/22 14:50:18;;;;;;;4.20;2.13;;;;;;;;;;5054093;28;20052;-40
2022/01/22 14:52:47;;;;;;;3.67;2.15;;;;;;;;;;5054255;28;20029;-40
2022/01/22 14:55:13;;;;;;;4.65;2.03;;;;;;;;;;5054161;28;20492;-61
2022/01/22 14:57:41;;;;;;;2.78;1.90;;;;;;;;;;5054549;28;20100;-58
2022/01/22 15:00:10;;;;;;;3.38;1.85;;;;;;;;;;5054152;28;20025;-61
2022/01/22 15:02:37;;;;;;;2.63;1.92;;;;;;;;;;5054208;28;20025;-62
2022/01/22 15:05:11;;;;;;;7.40;2.75;;;;;;;;;;5054335;28;20037;-39
2022/01/22 15:07:37;;;;;;;4.05;1.88;;;;;;;;;;5053996;28;20017;-61
2022/01/22 15:10:04;;;;;;;2.60;2.10;;;;;;;;;;5053796;28;20070;-40
2022/01/22 15:12:30;;;;;;;5.28;2.20;;;;;;;;;;5053926;28;20581;-40
2022/01/22 15:14:55;;;;;;;5.18;2.72;;;;;;;;;;5053826;28;20064;-57
2022/01/22 15:19:48;;;;;;;2.90;2.03;;;;;;;;;;5053843;28;20053;-52
2022/01/22 15:22:17;;;;;;;6.88;2.47;;;;;;;;;;5053629;28;20021;-62
2022/01/22 15:24:45;;;;;;;4.10;2.37;;;;;;;;;;5053603;28;20044;-42
2022/01/22 15:27:13;;;;;;;2.85;2.20;;;;;;;;;;5053941;28;20025;-61
2022/01/22 15:29:54;;;;;;;4.13;2.53;;;;;;;;;;5053707;28;20116;-53
2022/01/22 15:35:06;;;;;;;3.83;2.22;;;;;;;;;;5053499;28;20017;-58
2022/01/22 15:37:32;;;;;;;3.70;2.43;;;;;;;;;;5053698;28;20029;-43
2022/01/22 15:39:57;;;;;;;3.92;2.38;;;;;;;;;;5053371;28;20059;-52
2022/01/22 15:42:23;;;;;;;5.00;3.10;;;;;;;;;;5053373;28;20029;-59
2022/01/22 15:44:48;;;;;;;6.03;2.92;;;;;;;;;;5053279;28;20021;-39
2022/01/22 15:47:14;;;;;;;13.35;3.08;;;;;;;;;;5053126;28;20029;-40
2022/01/22 15:49:41;;;;;;;6.75;3.17;;;;;;;;;;5053146;28;20080;-62
2022/01/22 15:52:07;;;;;;;5.03;2.90;;;;;;;;;;5053345;28;20036;-48
2022/01/22 15:54:32;;;;;;;7.13;4.28;;;;;;;;;;5053410;28;20029;-58
2022/01/22 15:56:59;;;;;;;6.95;3.20;;;;;;;;;;5053033;28;20377;-40
2022/01/22 15:59:25;;;;;;;7.32;3.67;;;;;;;;;;5052635;28;20025;-61
2022/01/22 16:01:52;;;;;;;6.72;3.10;;;;;;;;;;5053282;28;20032;-41
2022/01/22 16:04:18;;;;;;;4.07;2.60;;;;;;;;;;5053237;28;20043;-51
2022/01/22 16:09:16;;;;;;;5.97;3.35;;;;;;;;;;5050680;28;20124;-41
2022/01/22 16:11:41;;;;;;;5.88;2.95;;;;;;;;;;5053079;28;20017;-39
2022/01/22 16:14:08;;;;;;;5.75;3.08;;;;;;;;;;5053124;28;20544;-39
2022/01/22 16:16:35;;;;;;;4.60;2.90;;;;;;;;;;5052613;28;20060;-38
2022/01/22 16:19:00;;;;;;;6.57;3.08;;;;;;;;;;5052808;28;20040;-38
2022/01/22 16:21:26;;;;;;;4.28;2.67;;;;;;;;;;5052636;28;20072;-39
2022/01/22 16:23:52;;;;;;;4.70;2.83;;;;;;;;;;5052916;28;20107;-38
2022/01/22 16:26:17;;;;;;;4.72;3.22;;;;;;;;;;5052548;28;20438;-40
2022/01/22 16:28:43;;;;;;;5.45;3.03;;;;;;;;;;5052745;28;20032;-39
2022/01/22 16:31:08;;;;;;;3.47;2.22;;;;;;;;;;5051243;28;20099;-39
2022/01/22 16:33:34;;;;;;;7.68;2.83;;;;;;;;;;5050923;28;20529;-38
2022/01/22 16:35:59;;;;;;;3.63;2.05;;;;;;;;;;5051563;28;20480;-39
2022/01/22 16:38:25;;;;;;;2.53;2.15;;;;;;;;;;5051053;28;20119;-39
2022/01/22 16:40:51;;;;;;;3.80;2.30;;;;;;;;;;5050765;28;20029;-39
2022/01/22 16:43:17;;;;;;;7.13;2.17;;;;;;;;;;5052605;28;20068;-39
2022/01/22 16:56:25;;;;;;;4.13;2.40;;;;;;;;;;5052518;28;20021;-40
2022/01/22 16:58:52;;;;;;;4.22;2.65;;;;;;;;;;5051543;28;20529;-39
2022/01/22 17:01:29;;;;;;;5.03;2.33;;;;;;;;;;5052394;28;20021;-39
2022/01/22 17:03:57;;;;;;;3.05;2.10;;;;;;;;;;5052262;28;20052;-39
2022/01/22 17:06:23;;;;;;;4.72;2.65;;;;;;;;;;5052314;28;20021;-39
2022/01/22 17:08:58;;;;;;;7.70;2.63;;;;;;;;;;5052090;28;20060;-39
2022/01/22 17:11:40;;;;;;;4.82;2.58;;;;;;;;;;5054615;28;20410;-39
2022/01/22 17:14:13;;;;;;;8.93;2.63;;;;;;;;;;5056490;28;20068;-39